Time;durP1;ratioP1;P1;durP2;ratioP2;P2;SDS_P1;SDS_P2;PMS_P1;PMS_P2;Temp;Humidity;BMP_temperature;BMP_pressure;BME280_temperature;BME280_humidity;BME280_pressure;Samples;Min_cycle;Max_cycle;Signal;HPM_P1;HPM_P2
2021/01/24 00:02:06;;;;;;;22.57;11.53;;;2.50;86.80;;;;;;4989403;28;20129;-64
2021/01/24 00:04:32;;;;;;;18.27;11.53;;;2.50;86.70;;;;;;4990331;28;20046;-67
2021/01/24 00:06:58;;;;;;;18.93;11.33;;;2.50;86.60;;;;;;4990111;28;20038;-65
2021/01/24 00:09:24;;;;;;;21.87;13.47;;;2.50;86.60;;;;;;4990544;28;20038;-66
2021/01/24 00:11:50;;;;;;;20.20;11.40;;;2.40;86.60;;;;;;4989760;28;20042;-65
2021/01/24 00:14:15;;;;;;;20.77;12.50;;;2.30;86.40;;;;;;4990584;28;20035;-65
2021/01/24 00:16:41;;;;;;;21.53;12.60;;;2.20;86.40;;;;;;4990944;28;20066;-65
2021/01/24 00:19:07;;;;;;;22.77;12.17;;;2.20;86.50;;;;;;4989853;28;20049;-65
2021/01/24 00:21:32;;;;;;;24.43;13.57;;;2.10;86.70;;;;;;4956261;28;20037;-66
2021/01/24 00:23:58;;;;;;;23.33;13.00;;;2.10;87.00;;;;;;4990989;28;20097;-64
2021/01/24 00:26:24;;;;;;;24.80;14.10;;;2.10;87.20;;;;;;4990235;28;20068;-66
2021/01/24 00:28:49;;;;;;;27.03;15.13;;;2.00;87.10;;;;;;4982915;28;20467;-64
2021/01/24 00:31:15;;;;;;;22.23;12.77;;;2.00;87.30;;;;;;4990188;28;20087;-64
2021/01/24 00:33:41;;;;;;;23.37;14.00;;;2.00;87.30;;;;;;4989147;28;20046;-65
2021/01/24 00:36:07;;;;;;;25.13;13.83;;;2.00;87.40;;;;;;4977008;28;20034;-65
2021/01/24 00:38:32;;;;;;;23.27;12.83;;;2.00;87.50;;;;;;4992581;28;20082;-64
2021/01/24 00:41:01;;;;;;;22.37;13.07;;;2.00;87.80;;;;;;4976233;28;20030;-65
2021/01/24 00:43:27;;;;;;;24.13;13.30;;;2.00;88.10;;;;;;4977236;28;20038;-66
2021/01/24 00:45:53;;;;;;;23.93;14.03;;;2.10;88.30;;;;;;4993777;28;20105;-65
2021/01/24 00:48:19;;;;;;;23.47;13.50;;;2.10;88.40;;;;;;4994283;28;20507;-65
2021/01/24 00:50:45;;;;;;;23.17;12.73;;;2.20;89.10;;;;;;4975597;28;20088;-65
2021/01/24 00:53:11;;;;;;;22.07;13.13;;;2.20;88.70;;;;;;4992899;28;20399;-65
2021/01/24 00:55:37;;;;;;;21.40;12.90;;;2.20;88.60;;;;;;4994015;28;20026;-66
2021/01/24 00:58:02;;;;;;;22.83;13.17;;;2.20;88.70;;;;;;4993677;28;20105;-65
2021/01/24 01:00:28;;;;;;;22.43;12.23;;;2.30;88.90;;;;;;4993513;28;20069;-64
2021/01/24 01:02:54;;;;;;;24.73;13.67;;;2.30;89.00;;;;;;4993087;28;20046;-66
2021/01/24 01:05:20;;;;;;;20.77;11.87;;;2.40;89.20;;;;;;4993837;28;20058;-65
2021/01/24 01:07:45;;;;;;;21.40;12.50;;;2.40;89.20;;;;;;4976374;28;20406;-65
2021/01/24 01:10:12;;;;;;;22.70;12.57;;;2.50;89.10;;;;;;4975590;28;20525;-65
2021/01/24 01:12:37;;;;;;;21.57;12.57;;;2.50;89.00;;;;;;4975738;28;20118;-66
2021/01/24 01:15:05;;;;;;;19.93;12.27;;;2.50;89.10;;;;;;4993257;28;20122;-67
2021/01/24 01:17:30;;;;;;;21.27;11.97;;;2.60;89.10;;;;;;4993582;28;20035;-65
2021/01/24 01:19:56;;;;;;;20.07;11.73;;;2.60;89.10;;;;;;4976086;28;20045;-64
2021/01/24 01:22:22;;;;;;;21.63;11.73;;;2.60;89.00;;;;;;4992654;28;20038;-66
2021/01/24 01:24:47;;;;;;;21.77;12.53;;;2.60;89.10;;;;;;4993375;28;20062;-65
2021/01/24 01:27:13;;;;;;;22.27;13.47;;;2.60;89.20;;;;;;4993510;28;20053;-63
2021/01/24 01:29:39;;;;;;;23.90;13.03;;;2.60;89.30;;;;;;4975900;28;20034;-63
2021/01/24 01:32:05;;;;;;;24.40;13.27;;;2.60;89.40;;;;;;4992620;28;20268;-65
2021/01/24 01:34:30;;;;;;;23.70;13.43;;;2.60;89.60;;;;;;4975718;28;20487;-66
2021/01/24 01:36:56;;;;;;;21.00;12.50;;;2.70;89.50;;;;;;4993376;28;20058;-65
2021/01/24 01:39:22;;;;;;;19.27;11.93;;;2.70;89.30;;;;;;4993114;28;20054;-65
2021/01/24 01:41:47;;;;;;;20.27;12.03;;;2.70;89.20;;;;;;4958428;28;20077;-65
2021/01/24 01:44:13;;;;;;;20.60;11.53;;;2.70;89.00;;;;;;4975778;28;20126;-65
2021/01/24 01:46:40;;;;;;;22.33;13.17;;;2.70;89.20;;;;;;4991495;28;20088;-67
2021/01/24 01:49:07;;;;;;;21.80;13.50;;;2.70;89.30;;;;;;4993009;28;20509;-65
2021/01/24 01:51:33;;;;;;;26.83;14.93;;;2.60;89.20;;;;;;4974856;28;20411;-65
2021/01/24 01:53:59;;;;;;;29.13;14.90;;;2.60;89.10;;;;;;4975061;28;20118;-65
2021/01/24 01:56:25;;;;;;;25.70;13.77;;;2.60;89.00;;;;;;4992878;28;20026;-65
2021/01/24 01:58:51;;;;;;;22.07;13.13;;;2.60;89.00;;;;;;4992418;28;20035;-66
2021/01/24 02:01:42;;;;;;;25.07;14.57;;;2.50;89.10;;;;;;4992050;28;20049;-65
2021/01/24 02:04:26;;;;;;;;;;;2.50;89.30;;;;;;4992757;28;20096;-66
2021/01/24 02:07:19;;;;;;;22.27;12.87;;;2.50;89.50;;;;;;4992754;28;20330;-66
2021/01/24 02:10:35;;;;;;;22.77;11.93;;;2.50;89.50;;;;;;4940369;28;20041;-64
2021/01/24 02:13:10;;;;;;;21.40;12.43;;;2.50;89.40;;;;;;4948996;28;20433;-65
2021/01/24 02:15:38;;;;;;;23.30;12.30;;;2.40;89.10;;;;;;4973549;28;20035;-65
2021/01/24 02:18:05;;;;;;;23.40;13.43;;;2.40;89.00;;;;;;4974745;28;20474;-65
2021/01/24 02:20:52;;;;;;;23.63;12.83;;;2.30;89.10;;;;;;4974845;28;20034;-66
2021/01/24 02:23:22;;;;;;;26.87;15.10;;;2.20;89.00;;;;;;4991995;28;20399;-65
2021/01/24 02:26:23;;;;;;;30.20;15.97;;;2.20;89.10;;;;;;4992391;28;20492;-65
2021/01/24 02:29:13;;;;;;;24.58;14.38;;;2.10;89.40;;;;;;4978650;28;20033;-65
2021/01/24 02:31:39;;;;;;;27.70;15.57;;;2.10;89.60;;;;;;4991163;28;20092;-65
2021/01/24 02:34:08;;;;;;;29.00;15.47;;;2.10;89.70;;;;;;4992193;28;20270;-66
2021/01/24 02:36:35;;;;;;;29.23;14.60;;;2.10;89.70;;;;;;4991785;28;20054;-70
2021/01/24 02:39:03;;;;;;;24.00;13.57;;;2.10;89.60;;;;;;4974818;28;20407;-66
2021/01/24 02:41:31;;;;;;;30.37;14.60;;;2.00;89.40;;;;;;4991304;28;20041;-65
2021/01/24 02:43:57;;;;;;;24.67;14.20;;;2.00;89.30;;;;;;4991474;28;20042;-65
2021/01/24 02:46:23;;;;;;;26.67;14.70;;;1.90;89.30;;;;;;4992129;28;20514;-65
2021/01/24 02:48:50;;;;;;;28.50;15.80;;;1.80;89.30;;;;;;4991628;28;20121;-65
2021/01/24 02:51:17;;;;;;;28.10;15.13;;;1.80;89.50;;;;;;4991246;28;20034;-65
2021/01/24 02:53:45;;;;;;;33.10;16.43;;;1.70;89.70;;;;;;4991845;28;20046;-65
2021/01/24 02:56:11;;;;;;;30.37;16.03;;;1.70;89.80;;;;;;4991377;28;20093;-64
2021/01/24 02:58:37;;;;;;;30.77;16.50;;;1.60;90.00;;;;;;4991543;28;20434;-64
2021/01/24 03:01:03;;;;;;;30.00;16.77;;;1.60;90.00;;;;;;4990583;28;20503;-64
2021/01/24 03:03:29;;;;;;;30.10;15.83;;;1.60;90.20;;;;;;4990379;28;20049;-65
2021/01/24 03:05:55;;;;;;;34.50;17.53;;;1.60;90.20;;;;;;4991633;28;20050;-65
2021/01/24 03:08:21;;;;;;;30.90;16.87;;;1.60;90.10;;;;;;4957790;28;20038;-63
2021/01/24 03:10:47;;;;;;;29.60;15.73;;;1.60;90.30;;;;;;4990879;28;20038;-63
2021/01/24 03:13:27;;;;;;;33.03;17.87;;;1.60;90.20;;;;;;4991141;28;20031;-66
2021/01/24 03:15:54;;;;;;;31.67;16.25;;;1.60;90.20;;;;;;4991708;28;20070;-65
2021/01/24 03:18:26;;;;;;;31.80;16.63;;;1.60;90.30;;;;;;4991066;28;20034;-66
2021/01/24 03:20:54;;;;;;;29.43;16.20;;;1.50;90.20;;;;;;4973662;28;20041;-66
2021/01/24 03:23:21;;;;;;;32.83;16.50;;;1.50;90.30;;;;;;4974214;28;20045;-65
2021/01/24 03:25:48;;;;;;;34.73;17.43;;;1.50;90.40;;;;;;4973906;28;20058;-65
2021/01/24 03:28:15;;;;;;;30.17;16.87;;;1.50;90.40;;;;;;4991459;28;20045;-65
2021/01/24 03:30:41;;;;;;;33.43;17.40;;;1.50;90.50;;;;;;4990437;28;20511;-65
2021/01/24 03:33:07;;;;;;;32.77;17.80;;;1.50;90.50;;;;;;4991279;28;20077;-65
2021/01/24 03:35:33;;;;;;;33.97;16.97;;;1.50;90.60;;;;;;4991074;28;20038;-68
2021/01/24 03:37:59;;;;;;;31.07;16.97;;;1.50;90.60;;;;;;4991131;28;20113;-65
2021/01/24 03:40:25;;;;;;;31.80;16.10;;;1.50;90.60;;;;;;4990996;28;20626;-65
2021/01/24 03:42:51;;;;;;;25.80;15.23;;;1.50;90.50;;;;;;4990086;28;20402;-64
2021/01/24 03:45:16;;;;;;;30.70;16.87;;;1.40;90.40;;;;;;4973497;28;20434;-66
2021/01/24 03:47:42;;;;;;;34.53;17.77;;;1.40;90.50;;;;;;4990581;28;20165;-65
2021/01/24 03:50:09;;;;;;;33.97;17.03;;;1.40;90.70;;;;;;4956373;28;20487;-65
2021/01/24 03:52:34;;;;;;;36.50;18.30;;;1.40;90.80;;;;;;4990361;28;20431;-65
2021/01/24 03:55:00;;;;;;;34.53;17.20;;;1.40;90.80;;;;;;4988825;28;20066;-64
2021/01/24 03:57:26;;;;;;;32.27;17.37;;;1.40;90.80;;;;;;4989501;28;20121;-65
2021/01/24 03:59:53;;;;;;;32.83;17.67;;;1.40;91.00;;;;;;4990294;28;20100;-65
2021/01/24 04:02:20;;;;;;;34.93;18.00;;;1.40;90.80;;;;;;4989947;28;20526;-64
2021/01/24 04:04:46;;;;;;;36.43;17.67;;;1.40;90.80;;;;;;4989772;28;20050;-65
2021/01/24 04:07:12;;;;;;;33.33;16.43;;;1.30;90.80;;;;;;4972666;28;20038;-65
2021/01/24 04:09:38;;;;;;;33.17;18.13;;;1.30;91.00;;;;;;4974926;28;20035;-65
2021/01/24 04:12:04;;;;;;;33.57;17.37;;;1.30;90.90;;;;;;4993799;28;20401;-64
2021/01/24 04:14:30;;;;;;;31.03;17.37;;;1.30;90.90;;;;;;4993887;28;20030;-66
2021/01/24 04:16:56;;;;;;;36.53;17.63;;;1.30;91.00;;;;;;4994162;28;20039;-64
2021/01/24 04:19:22;;;;;;;36.40;18.07;;;1.20;91.00;;;;;;4976962;28;20049;-64
2021/01/24 04:21:47;;;;;;;33.30;17.37;;;1.20;91.10;;;;;;4976352;28;20376;-63
2021/01/24 04:24:13;;;;;;;35.57;18.17;;;1.20;91.10;;;;;;4944925;28;20046;-65
2021/01/24 04:26:39;;;;;;;41.93;18.23;;;1.20;91.10;;;;;;4994209;28;20093;-65
2021/01/24 04:29:05;;;;;;;37.60;18.97;;;1.20;91.10;;;;;;4977187;28;20573;-66
2021/01/24 04:31:31;;;;;;;36.77;19.17;;;1.20;91.10;;;;;;4993258;28;20030;-65
2021/01/24 04:33:56;;;;;;;35.97;19.03;;;1.20;91.10;;;;;;4993361;28;20058;-65
2021/01/24 04:36:22;;;;;;;36.37;18.40;;;1.20;91.10;;;;;;4994259;28;20481;-64
2021/01/24 04:38:48;;;;;;;37.73;18.43;;;1.20;91.10;;;;;;4976567;28;20048;-65
2021/01/24 04:41:14;;;;;;;37.57;19.37;;;1.20;91.10;;;;;;4960090;28;20057;-65
2021/01/24 04:43:41;;;;;;;31.40;16.80;;;1.10;91.10;;;;;;4993037;28;20450;-65
2021/01/24 04:46:06;;;;;;;32.03;16.60;;;1.10;91.10;;;;;;4976456;28;20034;-65
2021/01/24 04:48:32;;;;;;;33.53;17.60;;;1.10;91.00;;;;;;4994053;28;20080;-65
2021/01/24 04:50:58;;;;;;;35.23;18.33;;;1.00;91.00;;;;;;4959494;28;20037;-65
2021/01/24 04:53:24;;;;;;;35.77;17.03;;;1.00;91.10;;;;;;4976738;28;20026;-65
2021/01/24 04:55:50;;;;;;;33.80;17.57;;;1.00;91.10;;;;;;4994094;28;20088;-65
2021/01/24 04:58:19;;;;;;;35.73;17.80;;;1.00;91.10;;;;;;4976017;28;20030;-65
2021/01/24 05:00:45;;;;;;;33.90;17.60;;;1.00;91.20;;;;;;4975908;28;20407;-65
2021/01/24 05:03:13;;;;;;;32.93;17.57;;;0.90;91.10;;;;;;4993447;28;20491;-65
2021/01/24 05:05:39;;;;;;;32.60;18.10;;;0.90;91.10;;;;;;4993760;28;20053;-65
2021/01/24 05:08:08;;;;;;;33.80;17.73;;;0.90;91.20;;;;;;4993344;28;20038;-65
2021/01/24 05:10:34;;;;;;;35.57;16.07;;;0.90;91.20;;;;;;4993298;28;20035;-65
2021/01/24 05:13:00;;;;;;;39.10;18.53;;;0.80;91.20;;;;;;4976094;28;20045;-65
2021/01/24 05:15:27;;;;;;;33.57;17.40;;;0.80;91.20;;;;;;4993263;28;20049;-65
2021/01/24 05:17:54;;;;;;;35.47;16.93;;;0.80;91.30;;;;;;4976258;28;20096;-65
2021/01/24 05:20:22;;;;;;;34.80;18.70;;;0.80;91.40;;;;;;4992360;28;20053;-66
2021/01/24 05:22:48;;;;;;;37.83;19.10;;;0.80;91.30;;;;;;4975735;28;20038;-65
2021/01/24 05:25:21;;;;;;;33.13;17.27;;;0.80;91.40;;;;;;4993574;28;20046;-65
2021/01/24 05:27:48;;;;;;;34.33;17.53;;;0.80;91.40;;;;;;4993169;28;20053;-65
2021/01/24 05:30:19;;;;;;;36.43;18.67;;;0.80;91.50;;;;;;4993054;28;20046;-65
2021/01/24 05:32:45;;;;;;;35.80;17.57;;;0.80;91.60;;;;;;4992371;28;20286;-64
2021/01/24 05:35:12;;;;;;;31.33;16.53;;;0.80;91.70;;;;;;4993308;28;20030;-63
2021/01/24 05:37:39;;;;;;;32.37;16.90;;;0.80;91.70;;;;;;4992860;28;20030;-65
2021/01/24 05:40:07;;;;;;;34.73;16.87;;;0.90;91.70;;;;;;4992918;28;20046;-65
2021/01/24 05:42:37;;;;;;;30.67;16.27;;;0.90;91.70;;;;;;4992893;28;20092;-65
2021/01/24 05:45:14;;;;;;;33.80;16.40;;;0.90;91.70;;;;;;4992542;28;20038;-64
2021/01/24 05:47:45;;;;;;;29.30;16.03;;;0.90;91.70;;;;;;4975730;28;20038;-66
2021/01/24 05:50:13;;;;;;;32.40;16.90;;;0.90;91.70;;;;;;4992141;28;20088;-65
2021/01/24 05:52:40;;;;;;;34.70;16.93;;;1.00;91.80;;;;;;4992571;28;20031;-65
2021/01/24 05:55:08;;;;;;;30.83;16.60;;;1.00;91.80;;;;;;4975110;28;20046;-65
2021/01/24 05:57:36;;;;;;;32.23;16.70;;;1.00;91.90;;;;;;4992861;28;20034;-64
2021/01/24 06:00:04;;;;;;;29.53;15.77;;;1.00;91.90;;;;;;4992034;28;20088;-64
2021/01/24 06:02:30;;;;;;;32.17;17.67;;;1.10;91.90;;;;;;4992526;28;20558;-63
2021/01/24 06:04:56;;;;;;;35.23;16.33;;;1.10;91.90;;;;;;4992615;28;20046;-65
2021/01/24 06:07:22;;;;;;;33.03;17.23;;;1.10;91.90;;;;;;4974892;28;20042;-64
2021/01/24 06:09:49;;;;;;;37.50;21.23;;;1.20;91.90;;;;;;4992551;28;20039;-66
2021/01/24 06:12:16;;;;;;;46.50;23.20;;;1.20;92.00;;;;;;4991555;28;20081;-65
2021/01/24 06:14:45;;;;;;;43.07;22.97;;;1.20;92.10;;;;;;4975131;28;20125;-65
2021/01/24 06:17:36;;;;;;;42.33;23.50;;;1.20;92.10;;;;;;4975070;28;20046;-64
2021/01/24 06:20:05;;;;;;;39.70;21.80;;;1.20;92.10;;;;;;4978183;28;20042;-65
2021/01/24 06:22:55;;;;;;;33.73;19.47;;;1.30;92.20;;;;;;4991961;28;20465;-65
2021/01/24 06:25:27;;;;;;;38.22;20.75;;;1.30;92.20;;;;;;4958465;28;20529;-75
2021/01/24 06:27:58;;;;;;;34.70;19.33;;;1.30;92.10;;;;;;4992628;28;20043;-75
2021/01/24 06:30:26;;;;;;;35.17;18.80;;;1.40;92.10;;;;;;4991666;28;20053;-76
2021/01/24 06:32:52;;;;;;;33.70;18.03;;;1.40;92.10;;;;;;4991298;28;20495;-75
2021/01/24 06:35:27;;;;;;;30.70;17.33;;;1.40;92.20;;;;;;4991584;28;20042;-74
2021/01/24 06:37:59;;;;;;;29.03;16.80;;;1.40;92.10;;;;;;4992290;28;20039;-76
2021/01/24 06:40:28;;;;;;;31.27;17.27;;;1.40;92.00;;;;;;4991230;28;20034;-75
2021/01/24 06:43:02;;;;;;;31.00;17.03;;;1.50;92.10;;;;;;4991936;28;20133;-75
2021/01/24 06:45:28;;;;;;;34.73;18.00;;;1.50;92.10;;;;;;4991402;28;20613;-75
2021/01/24 06:47:55;;;;;;;34.90;17.83;;;1.50;92.00;;;;;;4992167;28;20042;-75
2021/01/24 06:50:39;;;;;;;32.47;17.57;;;1.40;92.10;;;;;;4991388;28;20096;-75
2021/01/24 06:53:08;;;;;;;29.60;16.53;;;1.50;92.10;;;;;;4991711;28;20035;-75
2021/01/24 06:55:33;;;;;;;30.60;15.93;;;1.50;92.20;;;;;;4974359;28;20499;-75
2021/01/24 06:58:22;;;;;;;30.17;16.83;;;1.50;92.20;;;;;;4991362;28;20041;-74
2021/01/24 07:00:48;;;;;;;32.50;17.60;;;1.50;92.20;;;;;;4991096;28;20042;-75
2021/01/24 07:03:19;;;;;;;35.20;17.87;;;1.50;92.10;;;;;;4991320;28;20030;-74
2021/01/24 07:05:45;;;;;;;;;;;1.50;92.10;;;;;;4992081;28;20716;-75
2021/01/24 07:08:31;;;;;;;31.47;17.00;;;1.60;92.20;;;;;;4991262;28;19956;-75
2021/01/24 07:10:57;;;;;;;35.30;18.63;;;1.60;92.10;;;;;;4990952;28;20062;-75
2021/01/24 07:13:26;;;;;;;31.00;16.70;;;1.60;92.00;;;;;;4991142;28;20376;-74
2021/01/24 07:16:06;;;;;;;34.97;18.27;;;1.60;92.10;;;;;;4991608;28;20035;-75
2021/01/24 07:18:43;;;;;;;37.00;18.60;;;1.60;92.10;;;;;;4991300;28;20031;-74
2021/01/24 07:21:11;;;;;;;32.70;17.50;;;1.60;92.20;;;;;;4990749;28;20049;-75
2021/01/24 07:23:39;;;;;;;33.60;17.90;;;1.60;92.20;;;;;;4990912;28;20037;-74
2021/01/24 07:26:05;;;;;;;32.57;18.07;;;1.60;92.20;;;;;;4991480;28;20046;-74
2021/01/24 07:28:33;;;;;;;35.43;17.97;;;1.70;92.20;;;;;;4991177;28;20030;-75
2021/01/24 07:31:03;;;;;;;35.37;18.77;;;1.70;92.40;;;;;;4990814;28;20042;-74
2021/01/24 07:33:30;;;;;;;34.05;19.13;;;1.70;92.20;;;;;;4990891;28;20234;-74
2021/01/24 07:36:02;;;;;;;33.47;18.87;;;1.70;92.30;;;;;;4991344;28;20115;-75
2021/01/24 07:38:29;;;;;;;31.57;17.27;;;1.70;92.30;;;;;;4991479;28;20035;-74
2021/01/24 07:40:57;;;;;;;30.60;17.00;;;1.70;92.20;;;;;;4974929;28;20038;-75
2021/01/24 07:43:24;;;;;;;31.43;17.47;;;1.80;92.20;;;;;;5003420;28;20041;-75
2021/01/24 07:45:50;;;;;;;32.97;18.53;;;1.80;92.20;;;;;;5001303;28;20050;-75
2021/01/24 07:48:16;;;;;;;32.37;18.83;;;1.80;92.20;;;;;;5009227;28;20125;-74
2021/01/24 07:50:42;;;;;;;35.00;18.90;;;1.80;92.30;;;;;;5009290;28;20126;-76
2021/01/24 07:53:09;;;;;;;32.43;18.43;;;1.80;92.20;;;;;;5007912;28;20778;-76
2021/01/24 07:55:37;;;;;;;33.67;17.93;;;1.90;92.30;;;;;;4994564;28;20034;-76
2021/01/24 07:58:04;;;;;;;32.60;18.23;;;1.90;92.30;;;;;;4993638;28;20057;-75
2021/01/24 08:00:31;;;;;;;33.63;18.13;;;1.90;92.30;;;;;;5007656;28;20541;-76
2021/01/24 08:02:58;;;;;;;34.33;18.17;;;1.90;92.20;;;;;;5009263;28;20522;-74
2021/01/24 08:05:28;;;;;;;31.37;17.37;;;1.90;92.20;;;;;;5010167;28;20045;-75
2021/01/24 08:07:54;;;;;;;33.92;18.58;;;2.00;92.30;;;;;;4975205;28;20096;-75
2021/01/24 08:10:20;;;;;;;34.80;18.37;;;2.00;92.30;;;;;;5008228;28;20046;-76
2021/01/24 08:12:46;;;;;;;33.30;18.80;;;2.00;92.30;;;;;;4991453;28;20042;-76
2021/01/24 08:15:12;;;;;;;32.77;17.73;;;2.00;92.30;;;;;;5008512;28;20137;-75
2021/01/24 08:17:40;;;;;;;30.77;17.20;;;2.00;92.30;;;;;;5014265;28;20037;-76
2021/01/24 08:20:08;;;;;;;32.87;18.80;;;2.10;92.30;;;;;;5014050;28;20456;-75
2021/01/24 08:22:33;;;;;;;32.47;17.73;;;2.10;92.30;;;;;;4995816;28;20041;-75
2021/01/24 08:25:00;;;;;;;29.47;17.13;;;2.10;92.30;;;;;;5014249;28;20049;-75
2021/01/24 08:27:27;;;;;;;32.90;17.83;;;2.10;92.50;;;;;;5013789;28;20042;-75
2021/01/24 08:29:54;;;;;;;33.20;18.20;;;2.20;92.40;;;;;;5013816;28;20038;-76
2021/01/24 08:32:20;;;;;;;31.40;17.63;;;2.20;92.40;;;;;;5013478;28;20518;-75
2021/01/24 08:34:47;;;;;;;34.77;18.13;;;2.20;92.40;;;;;;5013624;28;20133;-75
2021/01/24 08:37:13;;;;;;;31.27;17.83;;;2.30;92.40;;;;;;4996564;28;20413;-75
2021/01/24 08:39:39;;;;;;;37.63;19.73;;;2.30;92.50;;;;;;5013545;28;20041;-74
2021/01/24 08:42:05;;;;;;;32.93;18.80;;;2.40;92.40;;;;;;4995584;28;20034;-76
2021/01/24 08:44:31;;;;;;;32.13;18.63;;;2.40;92.30;;;;;;5013795;28;20137;-74
2021/01/24 08:47:05;;;;;;;32.17;18.30;;;2.40;92.20;;;;;;4995739;28;20120;-75
2021/01/24 08:49:31;;;;;;;33.43;19.03;;;2.40;92.20;;;;;;5013823;28;20398;-74
2021/01/24 08:52:01;;;;;;;37.47;18.57;;;2.50;92.10;;;;;;5012435;28;20050;-74
2021/01/24 08:54:40;;;;;;;33.67;19.88;;;2.40;92.10;;;;;;4995459;28;20038;-75
2021/01/24 08:57:13;;;;;;;33.23;18.73;;;2.50;92.20;;;;;;4979449;28;20041;-74
2021/01/24 08:59:40;;;;;;;36.43;19.70;;;2.50;92.10;;;;;;5013687;28;20442;-75
2021/01/24 09:02:06;;;;;;;36.10;20.53;;;2.50;91.90;;;;;;5012268;28;20045;-74
2021/01/24 09:04:34;;;;;;;34.77;19.83;;;2.50;92.00;;;;;;5012838;28;20040;-75
2021/01/24 09:07:05;;;;;;;36.00;19.60;;;2.50;92.00;;;;;;5005815;28;20034;-75
2021/01/24 09:09:32;;;;;;;33.80;18.80;;;2.50;92.00;;;;;;4995313;28;20045;-75
2021/01/24 09:11:59;;;;;;;32.47;18.57;;;2.50;92.40;;;;;;4987835;28;20121;-74
2021/01/24 09:14:25;;;;;;;33.43;18.97;;;2.60;92.30;;;;;;5006954;28;20040;-73
2021/01/24 09:17:06;;;;;;;29.00;17.10;;;2.70;92.30;;;;;;5008822;28;20034;-75
2021/01/24 09:19:37;;;;;;;32.20;18.20;;;2.80;92.30;;;;;;5009009;28;20050;-74
2021/01/24 09:22:05;;;;;;;34.17;18.58;;;2.90;92.30;;;;;;5012346;28;20038;-75
2021/01/24 09:24:30;;;;;;;29.90;17.90;;;2.90;92.10;;;;;;5012475;28;20030;-75
2021/01/24 09:26:56;;;;;;;30.00;17.23;;;2.90;92.10;;;;;;5013058;28;20040;-75
2021/01/24 09:29:22;;;;;;;31.67;16.83;;;3.00;92.00;;;;;;5013034;28;20053;-75
2021/01/24 09:31:48;;;;;;;31.20;18.43;;;3.10;92.10;;;;;;5011754;28;20041;-75
2021/01/24 09:34:14;;;;;;;29.30;17.30;;;3.20;92.10;;;;;;5012811;28;20542;-75
2021/01/24 09:36:40;;;;;;;28.10;16.10;;;3.20;92.20;;;;;;4978719;28;20116;-74
2021/01/24 09:39:07;;;;;;;27.33;16.70;;;3.30;92.10;;;;;;4995372;28;20042;-75
2021/01/24 09:41:33;;;;;;;28.77;17.13;;;3.30;92.10;;;;;;4994380;28;20037;-75
2021/01/24 09:44:01;;;;;;;28.87;17.20;;;3.40;91.80;;;;;;5010968;28;20061;-73
2021/01/24 09:46:27;;;;;;;30.13;17.40;;;3.40;91.70;;;;;;5011070;28;20045;-74
2021/01/24 09:48:53;;;;;;;31.67;17.63;;;3.30;91.50;;;;;;5012228;28;20038;-74
2021/01/24 09:51:19;;;;;;;29.87;17.83;;;3.30;91.70;;;;;;5011987;28;20038;-73
2021/01/24 09:53:48;;;;;;;31.50;18.27;;;3.30;91.80;;;;;;5012633;28;20530;-74
2021/01/24 09:56:14;;;;;;;31.23;18.33;;;3.40;91.90;;;;;;4994725;28;20038;-75
2021/01/24 09:58:40;;;;;;;28.17;16.97;;;3.40;92.00;;;;;;5012513;28;20054;-76
2021/01/24 10:01:06;;;;;;;29.53;17.67;;;3.50;91.90;;;;;;4993770;28;20061;-75
2021/01/24 10:03:31;;;;;;;28.20;16.13;;;3.50;91.60;;;;;;5011880;28;20503;-75
2021/01/24 10:05:57;;;;;;;29.40;16.57;;;3.50;91.60;;;;;;5011284;28;20066;-75
2021/01/24 10:08:23;;;;;;;25.70;15.03;;;3.50;91.50;;;;;;5011133;28;20040;-75
2021/01/24 10:10:48;;;;;;;24.87;15.70;;;3.60;91.60;;;;;;4993948;28;20434;-75
2021/01/24 10:13:14;;;;;;;27.97;16.70;;;3.60;91.50;;;;;;4994355;28;20037;-72
2021/01/24 10:15:40;;;;;;;31.77;17.63;;;3.60;91.50;;;;;;5012115;28;20172;-75
2021/01/24 10:18:07;;;;;;;26.03;16.50;;;3.60;91.50;;;;;;5012230;28;20049;-75
2021/01/24 10:20:34;;;;;;;28.53;16.40;;;3.60;91.40;;;;;;5011141;28;20048;-75
2021/01/24 10:23:00;;;;;;;28.80;16.27;;;3.70;91.40;;;;;;5011794;28;20120;-76
2021/01/24 10:25:26;;;;;;;25.83;15.07;;;3.60;91.30;;;;;;5010617;28;20446;-74
2021/01/24 10:27:52;;;;;;;24.97;15.93;;;3.60;91.30;;;;;;5011193;28;20063;-75
2021/01/24 10:30:19;;;;;;;26.47;15.20;;;3.60;91.30;;;;;;5005338;28;20491;-76
2021/01/24 10:32:45;;;;;;;24.50;14.53;;;3.60;91.20;;;;;;4990957;28;20068;-75
2021/01/24 10:35:10;;;;;;;24.13;14.13;;;3.60;91.10;;;;;;4994407;28;20112;-76
2021/01/24 10:37:36;;;;;;;31.03;18.17;;;3.50;91.10;;;;;;5003405;28;20038;-74
2021/01/24 10:40:04;;;;;;;26.20;15.77;;;3.50;91.10;;;;;;5011468;28;20098;-75
2021/01/24 10:42:30;;;;;;;27.27;15.57;;;3.50;91.30;;;;;;5011353;28;20550;-75
2021/01/24 10:44:57;;;;;;;25.67;14.37;;;3.40;91.30;;;;;;4990398;28;20197;-74
2021/01/24 10:47:23;;;;;;;23.90;13.97;;;3.50;91.40;;;;;;5008254;28;20030;-74
2021/01/24 10:49:49;;;;;;;23.20;13.10;;;3.50;91.40;;;;;;5011087;28;20190;-74
2021/01/24 10:52:14;;;;;;;23.40;14.07;;;3.50;91.30;;;;;;5011063;28;20029;-75
2021/01/24 10:54:40;;;;;;;22.67;12.70;;;3.50;91.20;;;;;;5011536;28;20038;-75
2021/01/24 10:57:06;;;;;;;28.00;15.33;;;3.50;91.30;;;;;;5008852;28;20438;-75
2021/01/24 10:59:31;;;;;;;27.20;14.97;;;3.50;91.20;;;;;;4986349;28;20092;-75
2021/01/24 11:01:59;;;;;;;26.80;14.63;;;3.50;91.30;;;;;;5006527;28;20491;-75
2021/01/24 11:04:24;;;;;;;25.97;14.30;;;3.40;91.30;;;;;;4988736;28;20049;-75
2021/01/24 11:06:50;;;;;;;26.20;14.47;;;3.40;91.20;;;;;;5006804;28;20041;-76
2021/01/24 11:09:16;;;;;;;26.63;15.20;;;3.50;91.40;;;;;;5005072;28;20038;-75
2021/01/24 11:11:41;;;;;;;25.23;13.50;;;3.50;91.40;;;;;;5006744;28;20391;-75
2021/01/24 11:14:07;;;;;;;21.13;12.97;;;3.60;91.50;;;;;;5006963;28;20038;-76
2021/01/24 11:16:33;;;;;;;24.10;13.90;;;3.60;91.30;;;;;;5005851;28;20601;-75
2021/01/24 11:19:02;;;;;;;26.50;13.90;;;3.60;91.30;;;;;;5006448;28;20087;-76
2021/01/24 11:21:30;;;;;;;21.70;12.57;;;3.70;91.60;;;;;;5005369;28;20172;-74
2021/01/24 11:23:56;;;;;;;20.10;11.33;;;3.70;91.50;;;;;;5005390;28;20608;-75
2021/01/24 11:26:22;;;;;;;18.03;10.17;;;3.80;91.40;;;;;;5006425;28;20406;-74
2021/01/24 11:28:48;;;;;;;19.13;10.87;;;3.80;91.20;;;;;;5003921;28;20049;-74
2021/01/24 11:31:14;;;;;;;18.73;11.13;;;3.80;91.40;;;;;;5007100;28;20030;-75
2021/01/24 11:33:44;;;;;;;20.00;12.03;;;3.80;91.30;;;;;;5006212;28;20472;-74
2021/01/24 11:36:10;;;;;;;23.02;11.68;;;3.90;91.20;;;;;;4975079;28;20034;-75
2021/01/24 11:38:35;;;;;;;17.90;10.30;;;3.90;91.20;;;;;;5006857;28;20030;-75
2021/01/24 11:41:01;;;;;;;19.07;11.20;;;3.90;91.10;;;;;;5006340;28;20108;-74
2021/01/24 11:43:27;;;;;;;16.87;9.73;;;3.90;90.90;;;;;;5006505;28;20410;-75
2021/01/24 11:45:53;;;;;;;17.77;10.33;;;3.90;91.10;;;;;;5005105;28;20112;-74
2021/01/24 11:48:19;;;;;;;17.40;10.87;;;3.80;91.00;;;;;;4988728;28;20120;-75
2021/01/24 11:50:45;;;;;;;21.23;11.43;;;3.90;91.10;;;;;;5005180;28;20046;-75
2021/01/24 11:53:10;;;;;;;21.40;12.40;;;3.80;91.00;;;;;;4988463;28;20108;-75
2021/01/24 11:55:36;;;;;;;18.20;10.60;;;3.90;91.30;;;;;;4998406;28;20043;-73
2021/01/24 11:58:02;;;;;;;22.00;13.27;;;3.90;91.10;;;;;;4988317;28;20042;-75
2021/01/24 12:00:27;;;;;;;24.47;13.63;;;3.90;91.10;;;;;;4990581;28;20046;-75
2021/01/24 12:02:53;;;;;;;21.40;11.80;;;4.00;91.40;;;;;;4989976;28;20499;-74
2021/01/24 12:05:19;;;;;;;19.20;11.60;;;4.10;91.30;;;;;;4990317;28;20054;-74
2021/01/24 12:07:44;;;;;;;21.43;13.00;;;4.10;91.10;;;;;;4990991;28;20043;-75
2021/01/24 12:10:10;;;;;;;21.30;12.03;;;4.20;91.20;;;;;;4990236;28;20129;-75
2021/01/24 12:12:36;;;;;;;22.60;12.90;;;4.20;91.10;;;;;;4990685;28;20486;-75
2021/01/24 12:15:03;;;;;;;21.10;12.70;;;4.30;91.10;;;;;;4983707;28;20045;-73
2021/01/24 12:17:29;;;;;;;23.70;13.30;;;4.30;91.00;;;;;;4989403;28;20042;-74
2021/01/24 12:19:54;;;;;;;23.03;13.23;;;4.40;91.00;;;;;;4990913;28;20392;-75
2021/01/24 12:22:20;;;;;;;25.03;13.80;;;4.40;91.00;;;;;;4985234;28;20042;-74
2021/01/24 12:24:46;;;;;;;22.93;13.30;;;4.50;91.10;;;;;;4991074;28;20069;-74
2021/01/24 12:27:12;;;;;;;26.33;13.90;;;4.50;90.80;;;;;;4990768;28;20045;-75
2021/01/24 12:29:37;;;;;;;23.17;14.00;;;4.50;90.70;;;;;;4990792;28;20062;-75
2021/01/24 12:32:03;;;;;;;21.17;13.40;;;4.50;90.90;;;;;;4993692;28;20090;-74
2021/01/24 12:34:29;;;;;;;25.00;14.33;;;4.50;91.20;;;;;;4994144;28;20034;-73
2021/01/24 12:36:54;;;;;;;26.37;14.47;;;4.60;90.80;;;;;;4994432;28;20109;-74
2021/01/24 12:39:20;;;;;;;22.40;13.90;;;4.60;90.90;;;;;;4994500;28;20380;-73
2021/01/24 12:41:46;;;;;;;26.23;14.53;;;4.60;90.90;;;;;;4993000;28;20039;-75